Tuesday, September 16, 2014
17:36 UTC
  |  Log In   |  Register Free
Airport Search:

Carmi Municipal Airport
(KCUL)

Carmi Municipal Airport Diagram
No Airport Diagram Available

FAA data valid effective July 24, 2014 until September 18, 2014 (unless otherwise noted).

 
 
 
 
 
 
 
 
 
 
 
 
 
 

Current Aviation Weather for Carmi Municipal Airport (KCUL)

The most recent METAR observation for KCUL was updated at: 1714
METAR Summary (Translated METAR)
KCUL
161655Z AUTO 36007KT 10SM OVC018 17/13 A3019 RMK AO2 T01720131
KFWC
161655Z AUTO 35005KT 10SM OVC018 A3021 RMK AO2
(22.1 nm NW from KCUL)
KHSB
161655Z AUTO 01006KT 10SM OVC022 17/12 A3020 RMK AO2 T01670122
(26.2 nm SW from KCUL)
TAF
No TAF information found within 50 nm of KCUL
  Airport Weather Conditions for KCUL

 Current Weather at CUL
63° F
Overcast
Northeast winds at 5.8 mph
CUL NOAA Radar

Pressure: 30.19 in
Humidity: 76%
Wind: Northeast at 5.8 MPH (5 KT)
Dew Point: 55.4°F
Visibility: 10.00 mi


Airport Weather Forecast for KCUL

Translated METAR and TAF for KCUL
Translated METAR for KCUL (1730 UTC 16 September 2014)
found at http://aviationweather.gov/adds/metars/
 
METAR text: KCUL 161715Z AUTO 03004KT 10SM OVC020 18/13 A3019 RMK AO2 T01760131
Conditions at: KCUL (CARMI MUNI , IL, US) observed 1715 UTC 16 September 2014
Temperature: 17.6°C (64°F)
Dewpoint: 13.1°C (56°F) [RH = 75%]
Pressure (altimeter): 30.19 inches Hg (1022.4 mb)
Winds: from the NNE (30 degrees) at 5 MPH (4 knots; 2.1 m/s)
Visibility: 10 or more miles (16+ km)
Ceiling: 2000 feet AGL
Clouds: overcast cloud deck at 2000 feet AGL
Weather: automated observation with no human augmentation;
there may or may not be significant weather present at this time
Translated TAF for KCUL

There is no translated TAF available for this airport

Find All Airport Services Find A Hotel Find A Rental Car Find A Golf Course Find A Restaurant $100 Hamburger



FBO's on the Field
FBO Company Facility Photos Services Transportation Aviation Fuel Prices: Prices include tax
Catering Weather Repair Courtesy Rental Type 100LL JetA JetA+ MOGAS 8087
 
Carmi Municipal Airport

This FBO has not yet been rated
FS:Shell
Last Updated: Aug-26
Login to update fuel prices
SS:
Contact Carmi Municipal AirportMore FBO Information
 
Add another FBO Facility Photos Catering Weather Repair Courtesy Rental Type 100LL JetA JetA+ MOGAS 8087
Services Transportation Aviation Fuel Prices: Prices include tax


model-print
model-print
model-print
model-print